sensor_id;sensor_type;location;lat;lon;timestamp;pressure;altitude;pressure_sealevel;temperature;humidity
61682;BME280;47577;43.610;25.010;2023-05-08T00:01:51;100565.34;;;11.06;79.50
61682;BME280;47577;43.610;25.010;2023-05-08T00:04:17;100557.06;;;10.87;79.58
61682;BME280;47577;43.610;25.010;2023-05-08T00:06:45;100559.69;;;10.89;80.05
61682;BME280;47577;43.610;25.010;2023-05-08T00:09:11;100556.66;;;11.00;79.63
61682;BME280;47577;43.610;25.010;2023-05-08T00:11:37;100543.22;;;10.77;79.63
61682;BME280;47577;43.610;25.010;2023-05-08T00:14:02;100552.75;;;10.83;80.34
61682;BME280;47577;43.610;25.010;2023-05-08T00:16:28;100551.81;;;10.86;80.02
61682;BME280;47577;43.610;25.010;2023-05-08T00:18:54;100545.72;;;10.82;79.55
61682;BME280;47577;43.610;25.010;2023-05-08T00:21:19;100538.75;;;10.78;79.55
61682;BME280;47577;43.610;25.010;2023-05-08T00:23:45;100557.13;;;10.86;78.98
61682;BME280;47577;43.610;25.010;2023-05-08T00:26:10;100541.66;;;10.70;80.09
61682;BME280;47577;43.610;25.010;2023-05-08T00:28:36;100553.94;;;10.74;79.82
61682;BME280;47577;43.610;25.010;2023-05-08T00:31:02;100559.16;;;10.77;79.68
61682;BME280;47577;43.610;25.010;2023-05-08T00:33:28;100553.94;;;10.74;80.85
61682;BME280;47577;43.610;25.010;2023-05-08T00:36:04;100561.56;;;10.85;79.70
61682;BME280;47577;43.610;25.010;2023-05-08T00:38:34;100555.94;;;10.94;80.02
61682;BME280;47577;43.610;25.010;2023-05-08T00:41:00;100557.75;;;10.94;79.41
61682;BME280;47577;43.610;25.010;2023-05-08T00:43:27;100557.69;;;10.95;80.14
61682;BME280;47577;43.610;25.010;2023-05-08T00:45:58;100558.56;;;10.96;79.84
61682;BME280;47577;43.610;25.010;2023-05-08T00:48:27;100557.53;;;11.00;79.80
61682;BME280;47577;43.610;25.010;2023-05-08T00:50:55;100559.50;;;10.95;80.24
61682;BME280;47577;43.610;25.010;2023-05-08T00:53:21;100558.75;;;10.90;80.40
61682;BME280;47577;43.610;25.010;2023-05-08T00:55:51;100545.16;;;10.99;79.46
61682;BME280;47577;43.610;25.010;2023-05-08T00:58:18;100553.19;;;10.97;80.25
61682;BME280;47577;43.610;25.010;2023-05-08T01:00:44;100555.09;;;10.94;80.09
61682;BME280;47577;43.610;25.010;2023-05-08T01:03:11;100552.31;;;10.97;80.49
61682;BME280;47577;43.610;25.010;2023-05-08T01:05:39;100539.47;;;10.83;80.63
61682;BME280;47577;43.610;25.010;2023-05-08T01:08:07;100546.25;;;10.93;80.46
61682;BME280;47577;43.610;25.010;2023-05-08T01:16:35;100547.25;;;10.89;80.78
61682;BME280;47577;43.610;25.010;2023-05-08T01:21:55;100555.84;;;10.97;80.05
61682;BME280;47577;43.610;25.010;2023-05-08T01:30:45;100542.63;;;10.68;81.92
61682;BME280;47577;43.610;25.010;2023-05-08T01:33:25;100542.63;;;10.68;81.47
61682;BME280;47577;43.610;25.010;2023-05-08T01:36:13;100540.88;;;10.67;80.89
61682;BME280;47577;43.610;25.010;2023-05-08T01:38:52;100535.59;;;10.65;80.06
61682;BME280;47577;43.610;25.010;2023-05-08T01:41:25;100533.00;;;10.64;81.52
61682;BME280;47577;43.610;25.010;2023-05-08T01:44:17;100531.31;;;10.61;82.53
61682;BME280;47577;43.610;25.010;2023-05-08T01:46:47;100532.13;;;10.63;81.94
61682;BME280;47577;43.610;25.010;2023-05-08T01:49:23;100527.63;;;10.65;81.14
61682;BME280;47577;43.610;25.010;2023-05-08T01:52:05;100524.13;;;10.65;80.27
61682;BME280;47577;43.610;25.010;2023-05-08T01:54:49;100524.16;;;10.63;81.37
61682;BME280;47577;43.610;25.010;2023-05-08T01:57:21;100516.28;;;10.60;80.78
61682;BME280;47577;43.610;25.010;2023-05-08T01:59:48;100517.97;;;10.63;80.85
61682;BME280;47577;43.610;25.010;2023-05-08T02:02:16;100512.72;;;10.61;80.90
61682;BME280;47577;43.610;25.010;2023-05-08T02:04:43;100521.66;;;10.58;81.14
61682;BME280;47577;43.610;25.010;2023-05-08T02:07:09;100518.19;;;10.56;80.72
61682;BME280;47577;43.610;25.010;2023-05-08T02:09:36;100517.47;;;10.51;81.83
61682;BME280;47577;43.610;25.010;2023-05-08T02:12:05;100520.75;;;10.59;82.12
61682;BME280;47577;43.610;25.010;2023-05-08T02:14:32;100516.03;;;10.68;83.38
61682;BME280;47577;43.610;25.010;2023-05-08T02:17:01;100518.81;;;10.35;83.96
61682;BME280;47577;43.610;25.010;2023-05-08T02:19:28;100517.84;;;10.66;83.43
61682;BME280;47577;43.610;25.010;2023-05-08T02:21:57;100514.00;;;10.76;83.12
61682;BME280;47577;43.610;25.010;2023-05-08T02:24:24;100519.69;;;10.92;82.23
61682;BME280;47577;43.610;25.010;2023-05-08T02:26:52;100524.56;;;11.04;82.08
61682;BME280;47577;43.610;25.010;2023-05-08T02:29:21;100515.25;;;11.18;81.94
61682;BME280;47577;43.610;25.010;2023-05-08T02:31:48;100513.53;;;11.16;81.60
61682;BME280;47577;43.610;25.010;2023-05-08T02:34:15;100514.06;;;11.26;80.79
61682;BME280;47577;43.610;25.010;2023-05-08T02:36:42;100508.88;;;11.72;76.41
61682;BME280;47577;43.610;25.010;2023-05-08T02:39:10;100505.97;;;12.27;72.43
61682;BME280;47577;43.610;25.010;2023-05-08T02:41:39;100515.81;;;12.47;72.59
61682;BME280;47577;43.610;25.010;2023-05-08T02:44:07;100511.56;;;12.65;73.06
61682;BME280;47577;43.610;25.010;2023-05-08T02:49:40;100520.50;;;12.86;72.52
61682;BME280;47577;43.610;25.010;2023-05-08T02:52:28;100522.28;;;12.86;74.18
61682;BME280;47577;43.610;25.010;2023-05-08T02:55:00;100522.34;;;12.84;72.23
61682;BME280;47577;43.610;25.010;2023-05-08T02:57:42;100524.22;;;12.82;73.73
61682;BME280;47577;43.610;25.010;2023-05-08T03:00:17;100525.78;;;12.88;74.13
61682;BME280;47577;43.610;25.010;2023-05-08T03:02:48;100526.63;;;12.88;75.28
61682;BME280;47577;43.610;25.010;2023-05-08T03:05:20;100522.88;;;12.92;76.13
61682;BME280;47577;43.610;25.010;2023-05-08T03:07:51;100531.47;;;12.78;73.92
61682;BME280;47577;43.610;25.010;2023-05-08T03:10:18;100530.22;;;12.87;76.69
61682;BME280;47577;43.610;25.010;2023-05-08T03:12:49;100543.13;;;12.76;76.93
61682;BME280;47577;43.610;25.010;2023-05-08T03:15:26;100543.03;;;12.57;77.52
61682;BME280;47577;43.610;25.010;2023-05-08T03:17:55;100540.53;;;12.52;76.67
61682;BME280;47577;43.610;25.010;2023-05-08T03:20:22;100540.28;;;12.58;79.41
61682;BME280;47577;43.610;25.010;2023-05-08T03:22:50;100559.44;;;12.68;78.12
61682;BME280;47577;43.610;25.010;2023-05-08T03:25:17;100538.97;;;12.47;77.70
61682;BME280;47577;43.610;25.010;2023-05-08T03:27:45;100558.88;;;12.38;77.14
61682;BME280;47577;43.610;25.010;2023-05-08T03:30:13;100568.94;;;12.53;78.05
61682;BME280;47577;43.610;25.010;2023-05-08T03:32:40;100571.81;;;12.47;79.05
61682;BME280;47577;43.610;25.010;2023-05-08T03:35:08;100579.72;;;12.50;78.79
61682;BME280;47577;43.610;25.010;2023-05-08T03:37:34;100574.19;;;12.55;78.14
61682;BME280;47577;43.610;25.010;2023-05-08T03:40:00;100565.09;;;12.60;77.78
61682;BME280;47577;43.610;25.010;2023-05-08T03:42:26;100571.56;;;12.77;78.75
61682;BME280;47577;43.610;25.010;2023-05-08T03:44:53;100584.78;;;12.80;78.49
61682;BME280;47577;43.610;25.010;2023-05-08T03:47:20;100584.59;;;12.85;78.49
61682;BME280;47577;43.610;25.010;2023-05-08T03:49:46;100576.53;;;12.86;77.60
61682;BME280;47577;43.610;25.010;2023-05-08T03:52:13;100585.78;;;12.99;77.49
61682;BME280;47577;43.610;25.010;2023-05-08T03:54:39;100580.25;;;13.04;78.15
61682;BME280;47577;43.610;25.010;2023-05-08T03:57:05;100580.88;;;13.11;77.51
61682;BME280;47577;43.610;25.010;2023-05-08T04:02:18;100598.41;;;13.16;77.74
61682;BME280;47577;43.610;25.010;2023-05-08T04:04:47;100594.63;;;13.22;77.92
61682;BME280;47577;43.610;25.010;2023-05-08T04:07:45;100597.00;;;13.30;78.57
61682;BME280;47577;43.610;25.010;2023-05-08T04:10:18;100592.50;;;13.30;78.18
61682;BME280;47577;43.610;25.010;2023-05-08T04:13:14;100592.69;;;13.26;78.96
61682;BME280;47577;43.610;25.010;2023-05-08T04:15:51;100602.34;;;13.30;79.73
61682;BME280;47577;43.610;25.010;2023-05-08T04:18:19;100592.34;;;13.35;77.90
61682;BME280;47577;43.610;25.010;2023-05-08T04:20:48;100591.22;;;13.41;77.92
61682;BME280;47577;43.610;25.010;2023-05-08T04:23:17;100588.28;;;13.47;80.16
61682;BME280;47577;43.610;25.010;2023-05-08T04:25:43;100601.25;;;13.56;79.99
61682;BME280;47577;43.610;25.010;2023-05-08T04:28:11;100601.84;;;13.63;79.70
61682;BME280;47577;43.610;25.010;2023-05-08T04:30:38;100600.94;;;13.64;79.88
61682;BME280;47577;43.610;25.010;2023-05-08T04:33:04;100597.75;;;13.75;79.14
61682;BME280;47577;43.610;25.010;2023-05-08T04:35:31;100604.84;;;13.76;77.42
61682;BME280;47577;43.610;25.010;2023-05-08T04:37:58;100611.66;;;13.83;78.94
61682;BME280;47577;43.610;25.010;2023-05-08T04:40:24;100616.00;;;13.85;79.60
61682;BME280;47577;43.610;25.010;2023-05-08T04:42:49;100611.31;;;13.90;78.19
61682;BME280;47577;43.610;25.010;2023-05-08T04:45:15;100600.50;;;13.94;76.25
61682;BME280;47577;43.610;25.010;2023-05-08T04:47:41;100607.66;;;13.93;76.20
61682;BME280;47577;43.610;25.010;2023-05-08T04:50:07;100608.31;;;13.98;78.67
61682;BME280;47577;43.610;25.010;2023-05-08T04:52:33;100606.31;;;14.03;75.93
61682;BME280;47577;43.610;25.010;2023-05-08T04:54:59;100604.50;;;14.04;77.56
61682;BME280;47577;43.610;25.010;2023-05-08T04:57:24;100608.97;;;14.03;75.47
61682;BME280;47577;43.610;25.010;2023-05-08T04:59:50;100604.41;;;14.05;76.18
61682;BME280;47577;43.610;25.010;2023-05-08T05:02:15;100607.69;;;14.12;77.78
61682;BME280;47577;43.610;25.010;2023-05-08T05:04:41;100618.25;;;14.15;75.38
61682;BME280;47577;43.610;25.010;2023-05-08T05:07:07;100613.53;;;14.20;76.77
61682;BME280;47577;43.610;25.010;2023-05-08T05:09:32;100608.88;;;14.25;75.58
61682;BME280;47577;43.610;25.010;2023-05-08T05:12:02;100613.47;;;14.22;75.73
61682;BME280;47577;43.610;25.010;2023-05-08T05:14:28;100608.06;;;14.23;74.41
61682;BME280;47577;43.610;25.010;2023-05-08T05:16:54;100610.59;;;14.26;73.62
61682;BME280;47577;43.610;25.010;2023-05-08T05:19:20;100605.75;;;14.35;74.24
61682;BME280;47577;43.610;25.010;2023-05-08T05:21:46;100609.00;;;14.41;74.21
61682;BME280;47577;43.610;25.010;2023-05-08T05:24:12;100613.78;;;14.35;72.96
61682;BME280;47577;43.610;25.010;2023-05-08T05:26:37;100617.13;;;14.40;75.58
61682;BME280;47577;43.610;25.010;2023-05-08T05:29:03;100613.22;;;14.47;73.63
61682;BME280;47577;43.610;25.010;2023-05-08T05:31:29;100610.19;;;14.55;72.55
61682;BME280;47577;43.610;25.010;2023-05-08T05:33:55;100608.13;;;14.61;73.33
61682;BME280;47577;43.610;25.010;2023-05-08T05:36:20;100610.75;;;14.63;73.51
61682;BME280;47577;43.610;25.010;2023-05-08T05:38:46;100612.97;;;14.72;74.58
61682;BME280;47577;43.610;25.010;2023-05-08T05:41:12;100589.66;;;14.55;72.61
61682;BME280;47577;43.610;25.010;2023-05-08T05:43:38;100602.03;;;14.77;72.54
61682;BME280;47577;43.610;25.010;2023-05-08T05:46:04;100597.09;;;14.87;72.27
61682;BME280;47577;43.610;25.010;2023-05-08T05:48:30;100597.03;;;14.88;72.29
61682;BME280;47577;43.610;25.010;2023-05-08T05:50:56;100601.22;;;14.94;72.74
61682;BME280;47577;43.610;25.010;2023-05-08T05:53:22;100594.84;;;14.96;71.82
61682;BME280;47577;43.610;25.010;2023-05-08T05:55:47;100589.63;;;14.93;70.51
61682;BME280;47577;43.610;25.010;2023-05-08T05:58:13;100593.75;;;15.01;71.89
61682;BME280;47577;43.610;25.010;2023-05-08T06:00:40;100594.63;;;15.01;72.27
61682;BME280;47577;43.610;25.010;2023-05-08T06:03:05;100592.50;;;15.08;71.30
61682;BME280;47577;43.610;25.010;2023-05-08T06:05:31;100598.19;;;15.19;72.46
61682;BME280;47577;43.610;25.010;2023-05-08T06:07:58;100607.69;;;15.26;70.50
61682;BME280;47577;43.610;25.010;2023-05-08T06:10:23;100604.75;;;15.13;72.00
61682;BME280;47577;43.610;25.010;2023-05-08T06:12:49;100606.63;;;15.11;71.61
61682;BME280;47577;43.610;25.010;2023-05-08T06:15:15;100600.28;;;15.31;71.93
61682;BME280;47577;43.610;25.010;2023-05-08T06:17:41;100598.69;;;15.45;70.96
61682;BME280;47577;43.610;25.010;2023-05-08T06:20:07;100603.22;;;15.62;70.23
61682;BME280;47577;43.610;25.010;2023-05-08T06:22:33;100601.16;;;15.67;68.64
61682;BME280;47577;43.610;25.010;2023-05-08T06:24:58;100592.25;;;15.84;69.39
61682;BME280;47577;43.610;25.010;2023-05-08T06:27:24;100602.00;;;16.02;67.14
61682;BME280;47577;43.610;25.010;2023-05-08T06:29:51;100598.72;;;16.13;66.87
61682;BME280;47577;43.610;25.010;2023-05-08T06:32:20;100594.13;;;16.33;67.34
61682;BME280;47577;43.610;25.010;2023-05-08T06:34:46;100593.94;;;16.36;66.24
61682;BME280;47577;43.610;25.010;2023-05-08T06:37:12;100587.22;;;16.44;67.13
61682;BME280;47577;43.610;25.010;2023-05-08T06:39:38;100579.69;;;16.51;67.81
61682;BME280;47577;43.610;25.010;2023-05-08T06:42:03;100575.44;;;16.47;67.11
61682;BME280;47577;43.610;25.010;2023-05-08T06:44:31;100586.59;;;16.55;67.24
61682;BME280;47577;43.610;25.010;2023-05-08T06:46:57;100588.41;;;16.55;66.16
61682;BME280;47577;43.610;25.010;2023-05-08T06:49:22;100593.63;;;16.74;65.75
61682;BME280;47577;43.610;25.010;2023-05-08T06:51:48;100589.19;;;16.57;65.94
61682;BME280;47577;43.610;25.010;2023-05-08T06:54:14;100587.22;;;16.76;68.14
61682;BME280;47577;43.610;25.010;2023-05-08T06:56:40;100597.97;;;16.92;66.14
61682;BME280;47577;43.610;25.010;2023-05-08T06:59:05;100581.34;;;16.86;66.13
61682;BME280;47577;43.610;25.010;2023-05-08T07:01:31;100569.91;;;16.82;64.59
61682;BME280;47577;43.610;25.010;2023-05-08T07:03:57;100584.47;;;16.94;64.79
61682;BME280;47577;43.610;25.010;2023-05-08T07:06:22;100591.22;;;17.01;66.46
61682;BME280;47577;43.610;25.010;2023-05-08T07:08:48;100588.78;;;17.12;64.31
61682;BME280;47577;43.610;25.010;2023-05-08T07:11:14;100591.63;;;17.25;64.91
61682;BME280;47577;43.610;25.010;2023-05-08T07:13:40;100593.59;;;17.22;62.82
61682;BME280;47577;43.610;25.010;2023-05-08T07:16:10;100579.47;;;17.34;64.36
61682;BME280;47577;43.610;25.010;2023-05-08T07:18:37;100598.22;;;17.50;61.39
61682;BME280;47577;43.610;25.010;2023-05-08T07:21:03;100598.06;;;17.53;60.89
61682;BME280;47577;43.610;25.010;2023-05-08T07:23:28;100603.25;;;17.56;61.32
61682;BME280;47577;43.610;25.010;2023-05-08T07:25:54;100612.22;;;17.71;60.53
61682;BME280;47577;43.610;25.010;2023-05-08T07:28:20;100602.94;;;17.91;60.31
61682;BME280;47577;43.610;25.010;2023-05-08T07:30:46;100596.66;;;17.76;61.37
61682;BME280;47577;43.610;25.010;2023-05-08T07:33:11;100606.72;;;18.03;60.04
61682;BME280;47577;43.610;25.010;2023-05-08T07:35:38;100605.47;;;18.08;58.53
61682;BME280;47577;43.610;25.010;2023-05-08T07:38:03;100605.47;;;18.08;59.18
61682;BME280;47577;43.610;25.010;2023-05-08T07:40:29;100606.34;;;18.23;58.17
61682;BME280;47577;43.610;25.010;2023-05-08T07:42:55;100597.78;;;18.31;57.26
61682;BME280;47577;43.610;25.010;2023-05-08T07:45:20;100602.88;;;18.50;58.07
61682;BME280;47577;43.610;25.010;2023-05-08T07:47:58;100601.13;;;18.63;56.07
61682;BME280;47577;43.610;25.010;2023-05-08T07:50:25;100593.88;;;18.78;57.90
61682;BME280;47577;43.610;25.010;2023-05-08T07:52:51;100595.47;;;19.10;59.43
61682;BME280;47577;43.610;25.010;2023-05-08T07:55:18;100597.63;;;19.17;55.11
61682;BME280;47577;43.610;25.010;2023-05-08T07:57:44;100604.19;;;19.13;54.05
61682;BME280;47577;43.610;25.010;2023-05-08T08:00:12;100608.25;;;19.06;57.25
61682;BME280;47577;43.610;25.010;2023-05-08T08:02:38;100614.50;;;19.34;52.79
61682;BME280;47577;43.610;25.010;2023-05-08T08:05:05;100614.34;;;19.63;54.82
61682;BME280;47577;43.610;25.010;2023-05-08T08:07:31;100610.13;;;19.86;52.34
61682;BME280;47577;43.610;25.010;2023-05-08T08:09:58;100606.75;;;20.21;51.30
61682;BME280;47577;43.610;25.010;2023-05-08T08:12:23;100618.63;;;19.80;52.94
61682;BME280;47577;43.610;25.010;2023-05-08T08:14:49;100612.38;;;19.92;52.93
61682;BME280;47577;43.610;25.010;2023-05-08T08:17:17;100625.34;;;20.13;52.71
61682;BME280;47577;43.610;25.010;2023-05-08T08:19:43;100618.53;;;20.20;52.84
61682;BME280;47577;43.610;25.010;2023-05-08T08:22:09;100621.41;;;20.42;51.20
61682;BME280;47577;43.610;25.010;2023-05-08T08:24:35;100616.22;;;20.52;50.46
61682;BME280;47577;43.610;25.010;2023-05-08T08:27:00;100621.41;;;20.68;51.63
61682;BME280;47577;43.610;25.010;2023-05-08T08:29:26;100620.56;;;20.68;53.01
61682;BME280;47577;43.610;25.010;2023-05-08T08:31:52;100622.34;;;20.93;51.24
61682;BME280;47577;43.610;25.010;2023-05-08T08:34:18;100613.69;;;20.88;48.96
61682;BME280;47577;43.610;25.010;2023-05-08T08:36:43;100608.91;;;20.67;49.27
61682;BME280;47577;43.610;25.010;2023-05-08T08:39:09;100629.41;;;20.57;50.16
61682;BME280;47577;43.610;25.010;2023-05-08T08:41:34;100628.03;;;20.64;50.06
61682;BME280;47577;43.610;25.010;2023-05-08T08:44:00;100641.00;;;20.72;48.33
61682;BME280;47577;43.610;25.010;2023-05-08T08:46:27;100638.63;;;20.41;49.78
61682;BME280;47577;43.610;25.010;2023-05-08T08:48:54;100634.28;;;20.52;50.94
61682;BME280;47577;43.610;25.010;2023-05-08T08:51:27;100642.28;;;20.53;51.16
61682;BME280;47577;43.610;25.010;2023-05-08T08:54:12;100629.97;;;20.49;49.77
61682;BME280;47577;43.610;25.010;2023-05-08T08:56:39;100627.91;;;20.53;50.57
61682;BME280;47577;43.610;25.010;2023-05-08T08:59:07;100622.50;;;20.53;50.35
61682;BME280;47577;43.610;25.010;2023-05-08T09:01:35;100632.31;;;20.67;49.57
61682;BME280;47577;43.610;25.010;2023-05-08T09:04:03;100633.38;;;20.90;48.07
61682;BME280;47577;43.610;25.010;2023-05-08T09:06:29;100635.84;;;20.93;48.21
61682;BME280;47577;43.610;25.010;2023-05-08T09:08:56;100629.28;;;21.08;48.73
61682;BME280;47577;43.610;25.010;2023-05-08T09:11:23;100631.94;;;21.21;48.70
61682;BME280;47577;43.610;25.010;2023-05-08T09:13:50;100629.59;;;21.41;48.43
61682;BME280;47577;43.610;25.010;2023-05-08T09:16:16;100632.47;;;21.50;48.34
61682;BME280;47577;43.610;25.010;2023-05-08T09:18:42;100630.06;;;21.59;46.91
61682;BME280;47577;43.610;25.010;2023-05-08T09:21:07;100635.72;;;21.67;47.22
61682;BME280;47577;43.610;25.010;2023-05-08T09:23:36;100634.59;;;21.58;46.98
61682;BME280;47577;43.610;25.010;2023-05-08T09:26:45;100641.00;;;21.57;45.64
61682;BME280;47577;43.610;25.010;2023-05-08T09:29:13;100637.25;;;21.47;49.22
61682;BME280;47577;43.610;25.010;2023-05-08T09:31:44;100633.75;;;21.58;47.73
61682;BME280;47577;43.610;25.010;2023-05-08T09:34:21;100625.97;;;21.05;48.81
61682;BME280;47577;43.610;25.010;2023-05-08T09:36:52;100642.38;;;20.77;50.83
61682;BME280;47577;43.610;25.010;2023-05-08T09:39:23;100642.38;;;20.77;50.34
61682;BME280;47577;43.610;25.010;2023-05-08T09:42:03;100640.09;;;20.71;50.13
61682;BME280;47577;43.610;25.010;2023-05-08T09:44:48;100643.69;;;20.59;51.35
61682;BME280;47577;43.610;25.010;2023-05-08T09:50:01;100655.66;;;20.55;51.57
61682;BME280;47577;43.610;25.010;2023-05-08T09:52:28;100659.13;;;20.70;50.62
61682;BME280;47577;43.610;25.010;2023-05-08T09:55:02;100656.19;;;20.60;51.78
61682;BME280;47577;43.610;25.010;2023-05-08T09:57:29;100646.72;;;20.54;51.53
61682;BME280;47577;43.610;25.010;2023-05-08T10:02:34;100645.16;;;20.63;50.25
61682;BME280;47577;43.610;25.010;2023-05-08T10:05:00;100648.09;;;20.60;50.71
61682;BME280;47577;43.610;25.010;2023-05-08T10:07:31;100654.38;;;20.48;50.59
61682;BME280;47577;43.610;25.010;2023-05-08T10:09:58;100649.41;;;20.41;51.05
61682;BME280;47577;43.610;25.010;2023-05-08T10:12:25;100653.72;;;20.31;50.75
61682;BME280;47577;43.610;25.010;2023-05-08T10:14:51;100639.38;;;20.31;51.74
61682;BME280;47577;43.610;25.010;2023-05-08T10:17:22;100650.38;;;20.27;51.65
61682;BME280;47577;43.610;25.010;2023-05-08T10:19:54;100639.03;;;20.35;51.56
61682;BME280;47577;43.610;25.010;2023-05-08T10:22:21;100652.66;;;20.46;50.96
61682;BME280;47577;43.610;25.010;2023-05-08T10:24:52;100645.09;;;20.39;50.71
61682;BME280;47577;43.610;25.010;2023-05-08T10:27:23;100655.56;;;20.31;51.12
61682;BME280;47577;43.610;25.010;2023-05-08T10:29:53;100652.44;;;20.24;53.03
61682;BME280;47577;43.610;25.010;2023-05-08T10:32:21;100647.47;;;20.31;54.19
61682;BME280;47577;43.610;25.010;2023-05-08T10:34:57;100648.69;;;20.26;50.95
61682;BME280;47577;43.610;25.010;2023-05-08T10:37:23;100664.97;;;20.25;50.85
61682;BME280;47577;43.610;25.010;2023-05-08T10:39:51;100668.09;;;20.32;51.44
61682;BME280;47577;43.610;25.010;2023-05-08T10:42:18;100666.38;;;20.31;51.13
61682;BME280;47577;43.610;25.010;2023-05-08T10:44:44;100680.19;;;20.26;50.00
61682;BME280;47577;43.610;25.010;2023-05-08T10:47:18;100695.84;;;20.08;51.00
61682;BME280;47577;43.610;25.010;2023-05-08T10:49:51;100698.94;;;20.02;51.65
61682;BME280;47577;43.610;25.010;2023-05-08T10:52:49;100693.53;;;19.76;51.02
61682;BME280;47577;43.610;25.010;2023-05-08T10:55:23;100688.25;;;19.60;52.66
61682;BME280;47577;43.610;25.010;2023-05-08T10:58:12;100688.19;;;19.75;52.05
61682;BME280;47577;43.610;25.010;2023-05-08T11:03:18;100689.78;;;20.04;50.35
61682;BME280;47577;43.610;25.010;2023-05-08T11:05:48;100686.47;;;20.14;50.95
61682;BME280;47577;43.610;25.010;2023-05-08T11:08:16;100695.72;;;20.09;50.84
61682;BME280;47577;43.610;25.010;2023-05-08T11:10:46;100698.75;;;20.18;51.02
61682;BME280;47577;43.610;25.010;2023-05-08T11:13:17;100695.19;;;20.04;50.32
61682;BME280;47577;43.610;25.010;2023-05-08T11:15:50;100699.16;;;19.86;52.36
61682;BME280;47577;43.610;25.010;2023-05-08T11:18:16;100695.91;;;19.94;52.00
61682;BME280;47577;43.610;25.010;2023-05-08T11:20:58;100697.25;;;20.01;52.37
61682;BME280;47577;43.610;25.010;2023-05-08T11:23:28;100704.00;;;19.94;51.61
61682;BME280;47577;43.610;25.010;2023-05-08T11:25:59;100706.47;;;19.84;50.82
61682;BME280;47577;43.610;25.010;2023-05-08T11:28:33;100712.00;;;19.68;51.16
61682;BME280;47577;43.610;25.010;2023-05-08T11:31:03;100713.56;;;19.30;51.86
61682;BME280;47577;43.610;25.010;2023-05-08T11:33:36;100707.88;;;18.93;53.36
61682;BME280;47577;43.610;25.010;2023-05-08T11:36:19;100709.13;;;18.73;54.64
61682;BME280;47577;43.610;25.010;2023-05-08T11:39:06;100707.09;;;18.62;56.11
61682;BME280;47577;43.610;25.010;2023-05-08T11:41:32;100706.91;;;18.37;55.96
61682;BME280;47577;43.610;25.010;2023-05-08T11:46:37;100724.03;;;18.05;56.94
61682;BME280;47577;43.610;25.010;2023-05-08T11:49:03;100726.91;;;18.02;57.34
61682;BME280;47577;43.610;25.010;2023-05-08T11:51:32;100722.19;;;17.92;57.33
61682;BME280;47577;43.610;25.010;2023-05-08T11:54:01;100722.78;;;17.97;57.83
61682;BME280;47577;43.610;25.010;2023-05-08T11:56:27;100722.38;;;17.72;59.34
61682;BME280;47577;43.610;25.010;2023-05-08T11:59:11;100718.28;;;17.65;58.54
61682;BME280;47577;43.610;25.010;2023-05-08T12:01:37;100717.25;;;17.68;58.46
61682;BME280;47577;43.610;25.010;2023-05-08T12:04:08;100706.50;;;17.68;57.71
61682;BME280;47577;43.610;25.010;2023-05-08T12:06:36;100700.53;;;17.47;58.60
61682;BME280;47577;43.610;25.010;2023-05-08T12:09:12;100706.44;;;17.38;58.26
61682;BME280;47577;43.610;25.010;2023-05-08T12:11:38;100709.94;;;17.40;58.70
61682;BME280;47577;43.610;25.010;2023-05-08T12:14:08;100698.47;;;17.36;58.22
61682;BME280;47577;43.610;25.010;2023-05-08T12:16:35;100703.00;;;17.20;58.64
61682;BME280;47577;43.610;25.010;2023-05-08T12:19:09;100694.16;;;17.17;59.80
61682;BME280;47577;43.610;25.010;2023-05-08T12:21:35;100692.06;;;17.23;59.35
61682;BME280;47577;43.610;25.010;2023-05-08T12:24:05;100691.56;;;17.16;60.05
61682;BME280;47577;43.610;25.010;2023-05-08T12:26:35;100694.94;;;17.20;60.61
61682;BME280;47577;43.610;25.010;2023-05-08T12:29:04;100687.13;;;17.15;60.91
61682;BME280;47577;43.610;25.010;2023-05-08T12:31:32;100718.00;;;17.24;60.98
61682;BME280;47577;43.610;25.010;2023-05-08T12:33:58;100713.31;;;17.27;60.46
61682;BME280;47577;43.610;25.010;2023-05-08T12:36:24;100713.22;;;17.29;61.98
61682;BME280;47577;43.610;25.010;2023-05-08T12:38:51;100718.84;;;17.40;62.31
61682;BME280;47577;43.610;25.010;2023-05-08T12:41:22;100718.59;;;17.45;61.48
61682;BME280;47577;43.610;25.010;2023-05-08T12:43:48;100718.41;;;17.48;61.24
61682;BME280;47577;43.610;25.010;2023-05-08T12:46:14;100698.59;;;17.18;63.02
61682;BME280;47577;43.610;25.010;2023-05-08T12:48:42;100714.78;;;17.17;62.42
61682;BME280;47577;43.610;25.010;2023-05-08T12:51:09;100719.28;;;17.16;63.52
61682;BME280;47577;43.610;25.010;2023-05-08T12:53:36;100725.50;;;16.85;64.85
61682;BME280;47577;43.610;25.010;2023-05-08T12:56:03;100738.50;;;16.93;65.58
61682;BME280;47577;43.610;25.010;2023-05-08T12:58:33;100744.34;;;16.84;65.83
61682;BME280;47577;43.610;25.010;2023-05-08T13:01:07;100738.69;;;16.90;65.71
61682;BME280;47577;43.610;25.010;2023-05-08T13:03:34;100735.16;;;16.72;66.94
61682;BME280;47577;43.610;25.010;2023-05-08T13:06:00;100745.53;;;16.78;66.17
61682;BME280;47577;43.610;25.010;2023-05-08T13:11:01;100736.75;;;16.58;68.18
61682;BME280;47577;43.610;25.010;2023-05-08T13:13:29;100741.38;;;16.72;66.78
61682;BME280;47577;43.610;25.010;2023-05-08T13:15:56;100755.50;;;16.42;67.84
61682;BME280;47577;43.610;25.010;2023-05-08T13:18:25;100747.25;;;16.45;68.78
61682;BME280;47577;43.610;25.010;2023-05-08T13:20:52;100765.50;;;16.56;67.89
61682;BME280;47577;43.610;25.010;2023-05-08T13:23:18;100766.84;;;16.48;68.00